createdAt,value
2022-12-11T00:09:09.808Z,19.77
2022-12-11T00:19:11.336Z,19.07
2022-12-11T00:29:12.856Z,20.70
2022-12-11T00:39:14.542Z,20.70
2022-12-11T00:49:16.384Z,22.17
2022-12-11T00:59:17.953Z,20.35
2022-12-11T01:09:19.521Z,19.47
2022-12-11T01:19:21.154Z,19.30
2022-12-11T01:29:22.728Z,19.63
2022-12-11T01:39:24.686Z,19.10
2022-12-11T01:49:27.391Z,19.65
2022-12-11T01:59:32.772Z,18.53
2022-12-11T02:09:37.281Z,18.13
2022-12-11T02:20:01.513Z,17.70
2022-12-11T02:30:06.175Z,18.73
2022-12-11T02:40:10.738Z,17.13
2022-12-11T02:50:15.623Z,16.98
2022-12-11T03:00:17.540Z,18.03
2022-12-11T03:10:20.022Z,17.10
2022-12-11T03:20:30.697Z,19.02
2022-12-11T03:30:35.949Z,19.47
2022-12-11T03:40:40.360Z,20.27
2022-12-11T03:50:43.060Z,21.80
2022-12-11T04:00:44.674Z,22.70
2022-12-11T04:10:47.185Z,21.53
2022-12-11T04:20:48.758Z,19.33
2022-12-11T04:30:50.335Z,19.37
2022-12-11T04:41:06.530Z,15.67
2022-12-11T04:51:09.350Z,15.40
2022-12-11T05:01:16.556Z,15.10
2022-12-11T05:11:18.192Z,15.87
2022-12-11T05:21:19.858Z,15.70
2022-12-11T05:31:24.097Z,17.10
2022-12-11T05:41:28.113Z,18.50
2022-12-11T05:51:30.173Z,19.87
2022-12-11T06:01:41.086Z,20.35
2022-12-11T06:11:43.095Z,17.03
2022-12-11T06:21:45.734Z,19.17
2022-12-11T06:31:47.277Z,19.70
2022-12-11T06:41:48.838Z,17.47
2022-12-11T06:51:50.432Z,19.47
2022-12-11T07:01:52.083Z,17.47
2022-12-11T07:11:53.699Z,17.67
2022-12-11T07:21:56.448Z,15.77
2022-12-11T07:31:58.139Z,15.73
2022-12-11T07:41:59.995Z,14.25
2022-12-11T07:52:01.512Z,13.27
2022-12-11T08:02:03.187Z,13.37
2022-12-11T08:12:05.353Z,12.48
2022-12-11T08:22:07.101Z,10.17
2022-12-11T08:32:12.274Z,10.47
2022-12-11T08:42:14.253Z,9.07
2022-12-11T08:52:15.929Z,7.40
2022-12-11T09:02:17.615Z,7.13
2022-12-11T09:12:19.582Z,7.50
2022-12-11T09:22:21.683Z,6.10
2022-12-11T09:32:23.924Z,7.10
2022-12-11T09:42:41.434Z,6.90
2022-12-11T09:52:58.447Z,6.83
2022-12-11T10:03:22.068Z,8.20
2022-12-11T10:13:42.174Z,7.97
2022-12-11T10:23:50.995Z,9.27
2022-12-11T10:34:01.059Z,8.30
2022-12-11T10:44:18.132Z,8.50
2022-12-11T10:54:34.634Z,8.60
2022-12-11T11:04:43.218Z,8.93
2022-12-11T11:14:44.808Z,10.90
2022-12-11T11:24:52.013Z,10.13
2022-12-11T11:34:53.563Z,11.53
2022-12-11T11:45:24.891Z,10.65
2022-12-11T11:55:37.607Z,10.20
2022-12-11T12:05:50.890Z,10.17
2022-12-11T12:15:58.606Z,9.50
2022-12-11T12:26:20.475Z,8.93
2022-12-11T12:36:39.127Z,9.00
2022-12-11T12:46:49.547Z,8.55
2022-12-11T12:56:51.120Z,7.83
2022-12-11T13:06:52.888Z,7.03
2022-12-11T13:17:07.449Z,6.35
2022-12-11T13:27:11.382Z,6.53
2022-12-11T13:37:25.534Z,5.57
2022-12-11T13:47:28.850Z,6.63
2022-12-11T13:57:30.450Z,6.07
2022-12-11T14:07:42.069Z,6.13
2022-12-11T14:17:48.461Z,5.95
2022-12-11T14:27:56.266Z,4.17
2022-12-11T14:38:02.584Z,4.03
2022-12-11T14:48:09.325Z,4.20
2022-12-11T14:58:21.974Z,4.37
2022-12-11T15:08:34.938Z,4.97
2022-12-11T15:18:40.405Z,3.53
2022-12-11T15:28:41.958Z,4.27
2022-12-11T15:38:43.479Z,3.70
2022-12-11T15:48:45.066Z,2.88
2022-12-11T15:58:48.074Z,4.57
2022-12-11T16:08:49.598Z,4.70
2022-12-11T16:18:51.145Z,3.42
2022-12-11T16:28:52.718Z,4.17
2022-12-11T16:38:54.546Z,5.57
2022-12-11T16:48:56.280Z,3.97
2022-12-11T16:58:57.988Z,3.87
2022-12-11T17:08:59.544Z,3.13
2022-12-11T17:19:01.073Z,4.57
2022-12-11T17:29:03.496Z,6.30
2022-12-11T17:39:05.084Z,7.40
2022-12-11T17:49:06.619Z,7.35
2022-12-11T17:59:08.200Z,10.37
2022-12-11T18:09:09.780Z,7.30
2022-12-11T18:19:11.902Z,7.40
2022-12-11T18:29:13.432Z,6.07
2022-12-11T18:39:14.972Z,4.60
2022-12-11T18:49:16.559Z,5.57
2022-12-11T18:59:18.088Z,7.03
2022-12-11T19:09:19.616Z,6.77
2022-12-11T19:19:21.808Z,5.30
2022-12-11T19:29:26.002Z,7.45
2022-12-11T19:39:27.535Z,8.43
2022-12-11T19:49:29.162Z,10.17
2022-12-11T19:59:30.724Z,8.82
2022-12-11T20:09:32.424Z,9.27
2022-12-11T20:19:34.085Z,9.27
2022-12-11T20:29:35.655Z,9.57
2022-12-11T20:39:37.179Z,11.03
2022-12-11T20:49:39.194Z,11.67
2022-12-11T20:59:40.759Z,11.80
2022-12-11T21:09:42.361Z,12.47
2022-12-11T21:19:43.925Z,10.87
2022-12-11T21:29:45.456Z,10.77
2022-12-11T21:39:47.022Z,11.07
2022-12-11T21:49:48.606Z,10.67
2022-12-11T21:59:50.951Z,11.50
2022-12-11T22:09:52.533Z,10.60
2022-12-11T22:19:54.041Z,14.40
2022-12-11T22:29:55.616Z,14.87
2022-12-11T22:39:57.205Z,13.30
2022-12-11T22:49:58.720Z,15.13
2022-12-11T23:00:00.280Z,13.03
2022-12-11T23:10:02.306Z,12.77
2022-12-11T23:20:05.480Z,12.57
2022-12-11T23:30:08.253Z,13.67
2022-12-11T23:40:10.615Z,15.52
2022-12-11T23:50:12.185Z,14.13
